Welkom op de weersite van Veghel e.o.

Hopend op weer een interessant weer jaar.


Webcam Veghel  Webcam Veghel


Onweer radar Meer informatie blitzortung!


Regen radar Meer informatie rain snow radar


U vindt ons ook hier:

Het Weer Aktueel

European Weather Network

Weather Underground

Benelux Weer Netwerk

AWEKAS


Het weer levert geen direct gevaar op.    Er zijn geen waarschuwingen afgegeven.

METAR rapporten vliegvelden

   
EHAM - Amsterdam
Gewijzigd: 12-08-2020 14:25
Licht bewolkt  
Licht bewolkt  
   Wind: ONO 11.1 km/h
Wind: ONO 11.1 km/h
Temperatuur: 31°C
Gevoelstemperatuur: 32°C
Dauwpunt: 19°C
Vochtigheid: 49%
Barometer: 1014 hPa
Bewolking: Few Clouds
Zicht: meer dan 10 km
Bewolking: Licht bewolkt 4800 ft
EHAM 121225Z 06006KT 020V120 9999 FEW048 31/19 Q1014 NOSIG
EHEH - Eindhoven
Gewijzigd: 12-08-2020 14:25
Helder  
Helder  
   Wind: OZO 13 km/h
Wind: OZO 13 km/h
Temperatuur: 32°C
Gevoelstemperatuur: 33°C
Dauwpunt: 18°C
Vochtigheid: 43%
Barometer: 1013 hPa
Bewolking: Clear
Zicht: meer dan 10 km
Bewolking: Helder ft
EHEH 121225Z AUTO 11007KT 050V170 9999 NCD 32/18 Q1013 BLU NOSIG
EHGR - Gilze/Rijen
Gewijzigd: 12-08-2020 14:25
Helder  
Helder  
   Wind: OZO 16.7 km/h
Wind: OZO 16.7 km/h
Temperatuur: 32°C
Gevoelstemperatuur: 33°C
Dauwpunt: 18°C
Vochtigheid: 43%
Barometer: 1013 hPa
Bewolking: Clear
Zicht: meer dan 10 km
Bewolking: Helder ft
EHGR 121225Z AUTO 12009KT 350V140 9999 NCD 32/18 Q1013 BLU NOSIG
EHBK - Maastricht
Gewijzigd: 12-08-2020 14:25
Helder  
Helder  
   Wind: Oosten 9.3 km/h
Wind: Oosten 9.3 km/h
Temperatuur: 32°C
Gevoelstemperatuur: 33°C
Dauwpunt: 19°C
Vochtigheid: 46%
Barometer: 1013 hPa
Bewolking: Clear
Zicht: meer dan 10 km
Bewolking: Helder ft
EHBK 121225Z AUTO 08005KT 030V130 9999 NCD 32/19 Q1013 NOSIG
EHVK - Volkel
Gewijzigd: 12-08-2020 14:25
Helder  
Helder  
   Wind: Oosten 14.8 km/h
Wind: Oosten 14.8 km/h
Temperatuur: 32°C
Gevoelstemperatuur: 33°C
Dauwpunt: 18°C
Vochtigheid: 43%
Barometer: 1013 hPa
Bewolking: Clear
Zicht: meer dan 10 km
Bewolking: Helder ft
EHVK 121225Z AUTO 10008KT 060V160 9999 NCD 32/18 Q1013 BLU NOSIG
EHFS - Vlissingen
Gewijzigd: 12-08-2020 14:25
Gedeeltelijk bewolkt  
Gedeeltelijk bewolkt  
   Wind: OZO 16.7 km/h
Wind: OZO 16.7 km/h
Temperatuur: 26°C
Dauwpunt: 20°C
Vochtigheid: 70%
Barometer: 1013 hPa
Bewolking: Partly Cloudy
Zicht: meer dan 10 km
Bewolking: Gedeeltelijk bewolkt ft
EHFS 121225Z AUTO 12009KT 9999 NSC 26/20 Q1013

Script ontwikkeld door  Saratoga-weather.org Aangepast voor de template door  Weerstation Leuven

Apparatuur in gebruik:

Weerstation
Davis VP2

Weerprogramma
WeatherLink

Weercomputer
Sponsor

Webleverancier
My provider

Davis VP2

WeatherLink

Sponsor

My provider